Time;durP1;ratioP1;P1;durP2;ratioP2;P2;SDS_P1;SDS_P2;PMS_P1;PMS_P2;Temp;Humidity;BMP_temperature;BMP_pressure;BME280_temperature;BME280_humidity;BME280_pressure;Samples;Min_cycle;Max_cycle;Signal;HPM_P1;HPM_P2
2023/11/28 00:01:54;;;;;;;4.57;4.17;;;2.80;99.90;;;;;;5036123;28;20209;-87
2023/11/28 00:04:23;;;;;;;5.43;3.80;;;2.80;99.90;;;;;;5061158;28;20666;-88
2023/11/28 00:06:52;;;;;;;4.03;3.63;;;2.90;99.90;;;;;;5062465;28;20281;-86
2023/11/28 00:09:19;;;;;;;4.37;3.97;;;2.90;99.90;;;;;;5052246;28;20202;-86
2023/11/28 00:11:46;;;;;;;3.80;3.50;;;2.90;99.90;;;;;;5057749;28;20194;-86
2023/11/28 00:14:14;;;;;;;3.03;2.73;;;2.90;99.90;;;;;;5050950;28;20205;-87
2023/11/28 00:16:41;;;;;;;4.13;3.20;;;3.00;99.90;;;;;;5028205;28;20200;-86
2023/11/28 00:19:07;;;;;;;3.17;2.80;;;3.10;99.90;;;;;;5061446;28;20219;-86
2023/11/28 00:21:34;;;;;;;3.50;2.93;;;3.10;99.90;;;;;;5060791;28;20232;-86
2023/11/28 00:24:02;;;;;;;3.20;2.90;;;3.10;99.90;;;;;;5052904;28;20301;-86
2023/11/28 00:26:29;;;;;;;3.30;2.90;;;3.20;99.90;;;;;;5060425;28;20248;-87
2023/11/28 00:28:56;;;;;;;3.00;2.70;;;3.20;99.90;;;;;;5044849;28;20262;-89
2023/11/28 00:31:23;;;;;;;3.00;2.70;;;3.20;99.90;;;;;;5061145;28;20201;-87
2023/11/28 00:33:51;;;;;;;2.50;2.30;;;3.10;99.90;;;;;;5056140;28;20290;-87
2023/11/28 00:36:18;;;;;;;4.57;2.50;;;3.10;99.90;;;;;;5060111;28;20201;-87
2023/11/28 00:38:45;;;;;;;3.17;2.33;;;3.20;99.90;;;;;;5043051;28;20276;-88
2023/11/28 00:41:14;;;;;;;2.40;2.20;;;3.20;99.90;;;;;;5059732;28;20646;-88
2023/11/28 00:43:41;;;;;;;2.13;1.93;;;3.20;99.90;;;;;;5059102;28;20985;-86
2023/11/28 00:46:10;;;;;;;2.23;2.03;;;3.20;99.90;;;;;;5055504;28;20193;-87
2023/11/28 00:48:37;;;;;;;1.93;1.83;;;3.20;99.90;;;;;;5060893;28;20658;-86
2023/11/28 00:51:06;;;;;;;1.80;1.60;;;3.20;99.90;;;;;;5063918;28;20217;-86
2023/11/28 00:53:33;;;;;;;1.60;1.50;;;3.30;99.90;;;;;;5060968;28;20419;-87
2023/11/28 00:56:00;;;;;;;1.50;1.40;;;3.40;99.90;;;;;;5063890;28;20201;-86
2023/11/28 00:58:28;;;;;;;1.30;1.20;;;3.50;99.90;;;;;;5067261;28;20204;-87
2023/11/28 01:00:56;;;;;;;1.50;1.40;;;3.50;99.90;;;;;;5059912;28;20228;-86
2023/11/28 01:03:23;;;;;;;1.10;1.10;;;3.50;99.90;;;;;;5059431;28;20198;-86
2023/11/28 01:05:49;;;;;;;1.33;1.23;;;3.50;99.90;;;;;;5062141;28;20190;-86
2023/11/28 01:08:16;;;;;;;1.00;1.00;;;3.50;99.90;;;;;;5063561;28;20201;-86
2023/11/28 01:10:43;;;;;;;0.93;0.93;;;3.40;99.90;;;;;;5062584;28;20216;-91
2023/11/28 01:13:10;;;;;;;1.03;1.00;;;3.40;99.90;;;;;;5063233;28;20668;-86
2023/11/28 01:15:38;;;;;;;1.03;1.00;;;3.50;99.90;;;;;;5063019;28;20297;-86
2023/11/28 01:18:05;;;;;;;1.37;1.00;;;3.50;99.90;;;;;;5058509;28;20189;-86
2023/11/28 01:20:33;;;;;;;0.90;0.90;;;3.50;99.90;;;;;;5065077;28;20229;-86
2023/11/28 01:23:02;;;;;;;0.70;0.70;;;3.50;99.90;;;;;;5070196;28;20193;-87
2023/11/28 01:25:29;;;;;;;0.90;0.90;;;3.60;99.90;;;;;;5059818;28;20302;-86
2023/11/28 01:27:55;;;;;;;0.60;0.60;;;3.60;99.90;;;;;;5053634;28;20224;-86
2023/11/28 01:30:22;;;;;;;0.90;0.90;;;3.60;99.90;;;;;;5060377;28;20213;-86
2023/11/28 01:32:51;;;;;;;0.70;0.70;;;3.60;99.90;;;;;;5066873;28;20197;-86
2023/11/28 01:35:18;;;;;;;0.67;0.67;;;3.70;99.90;;;;;;5056828;28;20205;-86
2023/11/28 01:37:45;;;;;;;0.57;0.57;;;3.80;99.90;;;;;;5068152;28;20654;-87
2023/11/28 01:40:12;;;;;;;0.60;0.60;;;3.80;99.90;;;;;;5064612;28;20221;-86
2023/11/28 01:42:39;;;;;;;0.80;0.80;;;3.70;99.90;;;;;;5058039;28;20609;-87
2023/11/28 01:45:09;;;;;;;1.00;1.00;;;3.80;99.90;;;;;;5037612;28;20240;-86
2023/11/28 01:47:37;;;;;;;0.53;0.53;;;3.70;99.90;;;;;;5058644;28;20605;-87
2023/11/28 01:50:07;;;;;;;0.57;0.57;;;3.80;99.90;;;;;;5060236;28;20200;-86
2023/11/28 01:52:34;;;;;;;0.77;0.60;;;3.80;99.90;;;;;;5065514;28;20595;-87
2023/11/28 01:55:02;;;;;;;0.50;0.50;;;3.80;99.90;;;;;;5065743;28;20193;-86
2023/11/28 01:57:30;;;;;;;0.77;0.77;;;3.70;99.90;;;;;;5041593;28;20202;-86
2023/11/28 01:59:57;;;;;;;0.50;0.50;;;3.80;99.90;;;;;;5060812;28;20221;-90
2023/11/28 02:02:24;;;;;;;0.50;0.50;;;3.80;99.90;;;;;;5061444;28;21470;-86
2023/11/28 02:04:52;;;;;;;0.30;0.30;;;3.80;99.90;;;;;;5058164;28;20718;-86
2023/11/28 02:07:20;;;;;;;0.60;0.60;;;3.90;99.90;;;;;;5059051;28;20202;-87
2023/11/28 02:09:48;;;;;;;0.50;0.50;;;4.00;99.90;;;;;;5061205;28;20197;-87
2023/11/28 02:12:15;;;;;;;0.40;0.40;;;4.00;99.90;;;;;;5058198;28;20227;-86
2023/11/28 02:14:45;;;;;;;0.50;0.50;;;4.00;99.90;;;;;;5058943;28;20216;-87
2023/11/28 02:17:16;;;;;;;0.80;0.80;;;3.90;99.90;;;;;;5057909;28;20197;-88
2023/11/28 02:19:43;;;;;;;0.60;0.60;;;3.90;99.90;;;;;;5068272;28;20213;-86
2023/11/28 02:22:11;;;;;;;0.50;0.50;;;3.90;99.90;;;;;;5064501;28;20193;-88
2023/11/28 02:24:41;;;;;;;0.50;0.50;;;4.00;99.90;;;;;;5082629;28;20208;-85
2023/11/28 02:27:09;;;;;;;0.40;0.40;;;4.00;99.90;;;;;;5059685;28;20258;-86
2023/11/28 02:29:36;;;;;;;0.50;0.50;;;4.00;99.90;;;;;;5046155;28;20224;-86
2023/11/28 02:32:03;;;;;;;0.53;0.53;;;4.00;99.90;;;;;;5042451;28;20638;-88
2023/11/28 02:34:29;;;;;;;0.47;0.47;;;4.00;99.90;;;;;;5055690;28;20208;-86
2023/11/28 02:36:56;;;;;;;0.60;0.60;;;3.90;99.90;;;;;;5061875;28;20208;-88
2023/11/28 02:39:23;;;;;;;0.40;0.40;;;4.00;99.90;;;;;;5057092;28;20288;-87
2023/11/28 02:41:52;;;;;;;0.50;0.50;;;4.00;99.90;;;;;;5062293;28;20197;-87
2023/11/28 02:44:20;;;;;;;0.37;0.37;;;4.00;99.90;;;;;;5060365;28;20280;-86
2023/11/28 02:46:47;;;;;;;1.10;0.80;;;4.00;99.90;;;;;;5040023;28;20202;-87
2023/11/28 02:49:14;;;;;;;0.40;0.40;;;4.00;99.90;;;;;;5042104;28;20198;-87
2023/11/28 02:51:41;;;;;;;0.50;0.50;;;4.00;99.90;;;;;;5060878;28;20304;-87
2023/11/28 02:54:08;;;;;;;0.50;0.50;;;4.10;99.90;;;;;;5064381;28;20204;-86
2023/11/28 02:56:35;;;;;;;0.50;0.50;;;4.00;99.90;;;;;;5038381;28;20578;-87
2023/11/28 02:59:01;;;;;;;0.50;0.50;;;4.10;99.90;;;;;;5065878;28;20197;-87
2023/11/28 03:01:30;;;;;;;0.40;0.40;;;4.00;99.90;;;;;;5064578;28;20223;-90
2023/11/28 03:03:56;;;;;;;0.50;0.50;;;4.10;99.90;;;;;;5043184;28;20208;-87
2023/11/28 03:06:23;;;;;;;0.50;0.50;;;4.10;99.90;;;;;;5044228;28;20233;-86
2023/11/28 03:08:50;;;;;;;0.40;0.40;;;4.00;99.90;;;;;;5043434;28;20205;-88
2023/11/28 03:11:17;;;;;;;0.60;0.60;;;4.10;99.90;;;;;;5062879;28;20222;-87
2023/11/28 03:13:44;;;;;;;0.50;0.50;;;4.10;99.90;;;;;;5061756;28;20677;-87
2023/11/28 03:16:11;;;;;;;0.40;0.40;;;4.10;99.90;;;;;;5058833;28;20213;-86
2023/11/28 03:18:40;;;;;;;0.80;0.80;;;4.10;99.90;;;;;;5062132;28;20432;-87
2023/11/28 03:21:07;;;;;;;0.50;0.50;;;4.10;99.90;;;;;;5073036;28;20219;-86
2023/11/28 03:23:34;;;;;;;0.50;0.50;;;4.10;99.90;;;;;;5061227;28;20205;-87
2023/11/28 03:26:01;;;;;;;0.50;0.40;;;4.10;99.90;;;;;;5060166;28;20201;-87
2023/11/28 03:28:27;;;;;;;0.60;0.60;;;4.10;99.90;;;;;;5064535;28;20193;-86
2023/11/28 03:30:54;;;;;;;0.40;0.40;;;4.10;99.90;;;;;;5062336;28;20202;-87
2023/11/28 03:33:21;;;;;;;0.63;0.63;;;4.10;99.90;;;;;;5057522;28;20668;-87
2023/11/28 03:35:49;;;;;;;0.60;0.60;;;4.10;99.90;;;;;;5029215;28;20198;-86
2023/11/28 03:38:18;;;;;;;0.40;0.40;;;4.10;99.90;;;;;;5067450;28;20721;-86
2023/11/28 03:40:45;;;;;;;0.50;0.50;;;4.10;99.90;;;;;;5067165;28;20552;-87
2023/11/28 03:43:11;;;;;;;0.57;0.57;;;4.10;99.90;;;;;;5061743;28;20209;-87
2023/11/28 03:45:38;;;;;;;0.50;0.50;;;4.10;99.90;;;;;;5057362;28;20198;-86
2023/11/28 03:48:05;;;;;;;0.67;0.67;;;4.10;99.90;;;;;;5041438;28;20202;-86
2023/11/28 03:50:32;;;;;;;0.63;0.63;;;4.00;99.90;;;;;;5065586;28;20204;-86
2023/11/28 03:53:01;;;;;;;0.60;0.60;;;4.10;99.90;;;;;;5064044;28;20668;-88
2023/11/28 03:55:28;;;;;;;0.40;0.40;;;4.10;99.90;;;;;;5062724;28;20569;-86
2023/11/28 03:57:54;;;;;;;0.50;0.50;;;4.10;99.90;;;;;;5046630;28;20784;-86
2023/11/28 04:00:21;;;;;;;0.60;0.60;;;4.10;99.90;;;;;;5067726;28;20232;-86
2023/11/28 04:02:48;;;;;;;0.70;0.70;;;4.10;99.90;;;;;;5059972;28;20194;-86
2023/11/28 04:05:15;;;;;;;0.50;0.50;;;4.10;99.90;;;;;;5063312;28;20206;-89
2023/11/28 04:07:42;;;;;;;0.80;0.80;;;4.10;99.90;;;;;;5060982;28;20268;-88
2023/11/28 04:10:11;;;;;;;0.50;0.50;;;4.20;99.90;;;;;;5044975;28;20585;-87
2023/11/28 04:12:37;;;;;;;0.60;0.60;;;4.20;99.90;;;;;;5060849;28;20214;-87
2023/11/28 04:15:05;;;;;;;0.50;0.50;;;4.30;99.90;;;;;;5060960;28;20202;-87
2023/11/28 04:17:32;;;;;;;0.53;0.53;;;4.20;99.90;;;;;;5041853;28;20194;-88
2023/11/28 04:19:59;;;;;;;1.23;0.70;;;4.20;99.90;;;;;;5059780;28;20221;-86
2023/11/28 04:22:26;;;;;;;0.60;0.60;;;4.20;99.90;;;;;;5066454;28;20280;-86
2023/11/28 04:24:53;;;;;;;0.60;0.60;;;4.20;99.90;;;;;;5059789;28;20201;-86
2023/11/28 04:27:22;;;;;;;0.50;0.50;;;4.20;99.90;;;;;;5058229;28;20229;-85
2023/11/28 04:29:48;;;;;;;0.70;0.70;;;4.20;99.90;;;;;;5059249;28;20197;-86
2023/11/28 04:32:15;;;;;;;0.70;0.70;;;4.30;99.90;;;;;;5056219;28;20571;-86
2023/11/28 04:34:42;;;;;;;0.87;0.87;;;4.30;99.90;;;;;;5056859;28;20213;-88
2023/11/28 04:37:09;;;;;;;0.60;0.60;;;4.20;99.90;;;;;;5058283;28;20679;-85
2023/11/28 04:39:36;;;;;;;0.90;0.90;;;4.20;99.90;;;;;;5066709;28;20194;-85
2023/11/28 04:42:03;;;;;;;1.60;1.50;;;4.20;99.90;;;;;;5058052;28;21489;-85
2023/11/28 04:44:32;;;;;;;2.73;0.80;;;4.20;99.90;;;;;;5060191;28;20615;-89
2023/11/28 04:46:58;;;;;;;0.93;0.73;;;4.20;99.90;;;;;;5065238;28;20215;-85
2023/11/28 04:49:25;;;;;;;0.80;0.80;;;4.10;99.90;;;;;;5058331;28;20194;-86
2023/11/28 04:51:52;;;;;;;1.53;0.80;;;4.10;99.90;;;;;;5059869;28;20223;-86
2023/11/28 04:54:19;;;;;;;0.77;0.77;;;4.10;99.90;;;;;;5062934;28;20655;-85
2023/11/28 04:56:46;;;;;;;1.00;1.00;;;4.10;99.90;;;;;;5065133;28;20210;-86
2023/11/28 04:59:13;;;;;;;1.10;0.83;;;4.10;99.90;;;;;;5066198;28;20218;-85
2023/11/28 05:01:45;;;;;;;0.93;0.90;;;4.10;99.90;;;;;;5056983;28;20225;-86
2023/11/28 05:04:11;;;;;;;2.47;0.80;;;4.10;99.90;;;;;;5062189;28;20221;-85
2023/11/28 05:06:38;;;;;;;0.70;0.70;;;4.10;99.90;;;;;;5039868;28;20204;-87
2023/11/28 05:09:06;;;;;;;0.70;0.70;;;4.10;99.90;;;;;;5038590;28;20202;-86
2023/11/28 05:11:33;;;;;;;1.03;0.93;;;4.10;99.90;;;;;;5062370;28;20210;-86
2023/11/28 05:14:00;;;;;;;0.93;0.93;;;4.10;99.90;;;;;;5058029;28;20202;-87
2023/11/28 05:16:27;;;;;;;0.90;0.90;;;4.20;99.90;;;;;;5057788;28;20205;-89
2023/11/28 05:18:56;;;;;;;1.67;1.00;;;4.20;99.90;;;;;;5047988;28;20723;-86
2023/11/28 05:21:22;;;;;;;0.70;0.70;;;4.30;99.90;;;;;;5058903;28;20221;-86
2023/11/28 05:23:49;;;;;;;0.80;0.80;;;4.30;99.90;;;;;;5056354;28;20197;-86
2023/11/28 05:26:16;;;;;;;2.07;0.90;;;4.30;99.90;;;;;;5056244;28;20197;-88
2023/11/28 05:28:43;;;;;;;1.07;1.07;;;4.30;99.90;;;;;;5058591;28;20203;-88
2023/11/28 05:31:10;;;;;;;1.77;0.80;;;4.30;99.90;;;;;;5063119;28;20208;-89
2023/11/28 05:33:39;;;;;;;0.80;0.80;;;4.30;99.90;;;;;;5064710;28;20194;-89
2023/11/28 05:36:08;;;;;;;0.90;0.90;;;4.30;99.90;;;;;;5068315;28;20197;-89
2023/11/28 05:38:35;;;;;;;0.80;0.80;;;4.40;99.90;;;;;;5072754;28;20212;-90
2023/11/28 05:41:02;;;;;;;0.60;0.60;;;4.30;99.90;;;;;;5075721;28;20223;-91
2023/11/28 05:43:30;;;;;;;0.90;0.90;;;4.30;99.90;;;;;;5064315;28;20206;-89
2023/11/28 05:45:57;;;;;;;1.17;0.97;;;4.50;99.90;;;;;;5042682;28;20197;-89
2023/11/28 05:48:25;;;;;;;0.80;0.80;;;4.40;99.90;;;;;;5070899;28;20217;-89
2023/11/28 05:50:51;;;;;;;0.90;0.90;;;4.50;99.90;;;;;;5062122;28;20248;-90
2023/11/28 05:53:20;;;;;;;1.00;0.80;;;4.50;99.90;;;;;;5063908;28;20281;-89
2023/11/28 05:55:47;;;;;;;0.80;0.80;;;4.50;99.90;;;;;;5065441;28;20220;-89
2023/11/28 05:58:14;;;;;;;0.80;0.80;;;4.50;99.90;;;;;;5065465;28;20203;-89
2023/11/28 06:00:41;;;;;;;1.33;0.70;;;4.50;99.90;;;;;;5057991;28;20752;-89
2023/11/28 06:03:08;;;;;;;0.70;0.70;;;4.50;99.90;;;;;;5064480;28;20198;-90
2023/11/28 06:05:35;;;;;;;0.50;0.50;;;4.40;99.90;;;;;;5049135;28;20280;-89
2023/11/28 06:08:02;;;;;;;1.03;0.90;;;4.40;99.90;;;;;;5051799;28;20193;-88
2023/11/28 06:10:30;;;;;;;0.60;0.60;;;4.40;99.90;;;;;;5061396;28;20378;-89
2023/11/28 06:12:57;;;;;;;0.70;0.70;;;4.40;99.90;;;;;;5059512;28;20201;-89
2023/11/28 06:15:25;;;;;;;0.67;0.67;;;4.30;99.90;;;;;;5067194;28;20205;-88
2023/11/28 06:17:52;;;;;;;0.70;0.70;;;4.40;99.90;;;;;;5033702;28;20204;-89
2023/11/28 06:20:20;;;;;;;0.70;0.70;;;4.40;99.90;;;;;;5056551;28;20197;-88
2023/11/28 06:22:47;;;;;;;1.23;0.90;;;4.30;99.90;;;;;;5057089;28;20725;-90
2023/11/28 06:25:14;;;;;;;0.90;0.90;;;4.40;99.90;;;;;;5060089;28;20202;-88
2023/11/28 06:27:42;;;;;;;0.63;0.63;;;4.30;99.90;;;;;;5068766;28;20233;-89
2023/11/28 06:30:11;;;;;;;0.70;0.70;;;4.40;99.90;;;;;;5059927;28;20235;-89
2023/11/28 06:32:38;;;;;;;0.77;0.77;;;4.40;99.90;;;;;;5055796;28;20227;-88
2023/11/28 06:35:07;;;;;;;0.70;0.70;;;4.40;99.90;;;;;;5061871;28;20705;-89
2023/11/28 06:37:34;;;;;;;0.67;0.60;;;4.40;99.90;;;;;;5062489;28;20201;-89
2023/11/28 06:40:01;;;;;;;0.67;0.67;;;4.30;99.90;;;;;;5062137;28;21488;-88
2023/11/28 06:42:28;;;;;;;1.10;1.10;;;4.40;99.90;;;;;;5046887;28;20222;-88
2023/11/28 06:44:56;;;;;;;0.80;0.70;;;4.40;99.90;;;;;;5062238;28;20197;-88
2023/11/28 06:47:23;;;;;;;0.70;0.70;;;4.40;99.90;;;;;;5045064;28;20260;-88
2023/11/28 06:49:51;;;;;;;1.37;1.00;;;4.40;99.90;;;;;;5067155;28;20203;-89
2023/11/28 06:52:17;;;;;;;0.70;0.70;;;4.40;99.90;;;;;;5073090;28;20300;-88
2023/11/28 06:54:44;;;;;;;0.80;0.80;;;4.40;99.90;;;;;;5068655;28;20202;-88
2023/11/28 06:57:11;;;;;;;2.13;0.90;;;4.40;99.90;;;;;;5026655;28;20193;-88
2023/11/28 06:59:38;;;;;;;0.77;0.67;;;4.40;99.90;;;;;;5048562;28;20216;-88
2023/11/28 07:02:07;;;;;;;1.37;1.00;;;4.40;99.90;;;;;;5068974;28;20227;-88
2023/11/28 07:04:34;;;;;;;0.90;0.90;;;4.40;99.90;;;;;;5064293;28;20205;-88
2023/11/28 07:07:01;;;;;;;1.10;1.00;;;4.40;99.90;;;;;;5062644;28;20197;-89
2023/11/28 07:09:28;;;;;;;0.80;0.80;;;4.40;99.90;;;;;;5050891;28;20201;-89
2023/11/28 07:11:54;;;;;;;1.00;0.90;;;4.50;99.90;;;;;;5067457;28;20206;-89
2023/11/28 07:14:22;;;;;;;1.40;0.90;;;4.50;99.90;;;;;;5069388;28;20205;-88
2023/11/28 07:16:49;;;;;;;1.20;1.10;;;4.50;99.90;;;;;;5060421;28;20198;-88
2023/11/28 07:19:17;;;;;;;1.10;1.00;;;4.60;99.90;;;;;;5046055;28;20240;-88
2023/11/28 07:21:44;;;;;;;1.40;1.10;;;4.60;99.90;;;;;;5068430;28;20225;-88
2023/11/28 07:24:11;;;;;;;1.13;1.03;;;4.60;99.90;;;;;;5067871;28;20204;-88
2023/11/28 07:26:39;;;;;;;1.87;1.30;;;4.60;99.90;;;;;;5051084;28;20207;-88
2023/11/28 07:29:06;;;;;;;2.27;1.10;;;4.70;99.90;;;;;;5051691;28;20193;-88
2023/11/28 07:31:33;;;;;;;1.50;1.20;;;4.60;99.90;;;;;;5048153;28;20201;-88
2023/11/28 07:34:00;;;;;;;1.37;1.00;;;4.70;99.90;;;;;;5058683;28;20216;-88
2023/11/28 07:36:28;;;;;;;1.50;1.30;;;4.70;99.90;;;;;;5048048;28;20206;-88
2023/11/28 07:38:55;;;;;;;3.33;1.20;;;4.70;99.90;;;;;;5050111;28;20267;-89
2023/11/28 07:41:22;;;;;;;1.80;1.33;;;4.80;99.90;;;;;;5035515;28;20685;-88
2023/11/28 07:43:49;;;;;;;3.40;1.20;;;4.80;99.90;;;;;;5063730;28;20292;-89
2023/11/28 07:46:16;;;;;;;1.20;1.10;;;4.80;99.90;;;;;;5045513;28;20252;-88
2023/11/28 07:48:43;;;;;;;1.00;1.00;;;4.80;99.90;;;;;;5068875;28;20239;-90
2023/11/28 07:51:10;;;;;;;1.07;0.97;;;4.80;99.90;;;;;;5048034;28;20222;-88
2023/11/28 07:53:38;;;;;;;1.10;1.10;;;4.80;99.90;;;;;;5045408;28;20208;-88
2023/11/28 07:56:06;;;;;;;1.30;1.20;;;4.90;99.90;;;;;;5067561;28;20194;-89
2023/11/28 07:58:33;;;;;;;0.80;0.80;;;4.90;99.90;;;;;;5068326;28;20205;-88
2023/11/28 08:01:01;;;;;;;1.20;1.10;;;4.90;99.90;;;;;;5058586;28;20213;-88
2023/11/28 08:03:28;;;;;;;1.47;1.37;;;5.00;99.90;;;;;;5053413;28;20209;-88
2023/11/28 08:05:55;;;;;;;1.30;1.20;;;5.00;99.90;;;;;;5061468;28;20202;-89
2023/11/28 08:08:23;;;;;;;1.93;1.20;;;5.00;99.90;;;;;;5047581;28;20212;-89
2023/11/28 08:10:51;;;;;;;1.50;1.10;;;5.10;99.90;;;;;;5044251;28;20284;-89
2023/11/28 08:13:18;;;;;;;1.40;1.30;;;5.20;99.90;;;;;;5046783;28;20252;-89
2023/11/28 08:15:46;;;;;;;1.10;1.00;;;5.20;99.90;;;;;;5045631;28;20866;-90
2023/11/28 08:18:14;;;;;;;1.87;1.23;;;5.10;99.90;;;;;;5066134;28;20197;-86
2023/11/28 08:20:41;;;;;;;1.07;1.07;;;5.20;99.90;;;;;;5061819;28;20197;-90
2023/11/28 08:23:08;;;;;;;1.10;1.10;;;5.20;99.90;;;;;;5072276;28;20217;-92
2023/11/28 08:25:34;;;;;;;1.60;1.20;;;5.30;99.90;;;;;;5237472;22;20815;-90
2023/11/28 08:28:03;;;;;;;0.93;0.93;;;5.30;99.90;;;;;;5049950;28;20199;-88
2023/11/28 08:30:31;;;;;;;1.17;1.07;;;5.40;99.90;;;;;;5048618;28;20189;-89
2023/11/28 08:32:58;;;;;;;1.03;0.97;;;5.40;99.90;;;;;;5071370;28;20189;-90
2023/11/28 08:35:24;;;;;;;1.30;1.20;;;5.40;99.90;;;;;;5074769;28;20209;-92
2023/11/28 08:37:59;;;;;;;0.97;0.97;;;5.40;99.90;;;;;;5071260;28;20629;-90
2023/11/28 08:40:26;;;;;;;1.83;1.30;;;5.40;99.90;;;;;;5061804;28;20204;-89
2023/11/28 08:42:53;;;;;;;1.80;1.03;;;5.40;99.90;;;;;;5052027;28;20678;-88
2023/11/28 08:45:23;;;;;;;1.53;1.20;;;5.40;99.90;;;;;;5055374;28;20609;-90
2023/11/28 08:47:50;;;;;;;1.80;1.20;;;5.50;99.90;;;;;;5069580;28;20177;-89
2023/11/28 08:50:17;;;;;;;1.70;1.10;;;5.40;99.90;;;;;;5058878;28;20211;-90
2023/11/28 08:52:44;;;;;;;1.00;1.00;;;5.30;99.90;;;;;;5049471;28;20223;-86
2023/11/28 08:55:11;;;;;;;1.23;0.80;;;5.30;99.90;;;;;;5030225;28;20647;-90
2023/11/28 08:57:38;;;;;;;0.70;0.70;;;5.20;99.90;;;;;;5034448;28;20205;-85
2023/11/28 09:00:06;;;;;;;1.30;1.20;;;5.20;99.90;;;;;;5044979;28;20655;-88
2023/11/28 09:02:35;;;;;;;1.00;1.00;;;5.30;99.90;;;;;;5034383;28;20232;-89
2023/11/28 09:05:02;;;;;;;1.13;1.03;;;5.20;99.90;;;;;;5027175;28;20566;-88
2023/11/28 09:07:29;;;;;;;2.47;1.10;;;5.20;99.90;;;;;;5024903;28;20219;-89
2023/11/28 09:09:56;;;;;;;1.23;1.13;;;5.20;99.90;;;;;;5047918;28;20194;-89
2023/11/28 09:12:23;;;;;;;1.20;1.10;;;5.10;99.90;;;;;;5042399;28;20659;-89
2023/11/28 09:14:50;;;;;;;0.90;0.90;;;5.10;99.90;;;;;;5024592;28;20203;-88
2023/11/28 09:17:17;;;;;;;1.27;0.90;;;5.10;99.90;;;;;;5024346;28;20554;-89
2023/11/28 09:19:48;;;;;;;0.90;0.90;;;5.10;99.90;;;;;;5046156;28;20654;-89
2023/11/28 09:22:15;;;;;;;1.00;1.00;;;5.00;99.90;;;;;;5042015;28;20213;-88
2023/11/28 09:24:42;;;;;;;0.80;0.80;;;5.00;99.90;;;;;;5047014;28;20210;-88
2023/11/28 09:27:10;;;;;;;0.80;0.80;;;4.90;99.90;;;;;;5043290;28;20199;-89
2023/11/28 09:29:37;;;;;;;0.80;0.80;;;4.90;99.90;;;;;;5027692;28;20209;-88
2023/11/28 09:32:05;;;;;;;0.80;0.80;;;4.80;99.90;;;;;;5015373;28;20228;-89
2023/11/28 09:34:33;;;;;;;0.87;0.77;;;4.80;99.90;;;;;;5049356;28;20205;-87
2023/11/28 09:39:42;;;;;;;0.80;0.80;;;4.70;99.90;;;;;;5048065;28;20216;-88
2023/11/28 09:42:12;;;;;;;0.90;0.90;;;4.70;99.90;;;;;;5050039;28;20316;-89
2023/11/28 09:44:41;;;;;;;1.00;0.93;;;4.60;99.90;;;;;;5047630;28;20198;-88
2023/11/28 09:47:11;;;;;;;1.10;1.10;;;4.70;99.90;;;;;;5051390;28;20198;-87
2023/11/28 09:49:42;;;;;;;1.10;1.00;;;4.70;99.90;;;;;;5042439;28;20198;-88
2023/11/28 09:52:15;;;;;;;0.93;0.80;;;4.70;99.90;;;;;;5032979;28;20237;-88
2023/11/28 09:54:42;;;;;;;0.77;0.77;;;4.70;99.90;;;;;;5030714;28;20235;-88
2023/11/28 09:57:10;;;;;;;1.40;1.00;;;4.80;99.90;;;;;;5051585;28;20190;-90
2023/11/28 09:59:39;;;;;;;1.87;1.00;;;4.80;99.90;;;;;;5046973;28;20197;-90
2023/11/28 10:02:06;;;;;;;2.13;1.17;;;4.80;99.90;;;;;;5049761;28;20218;-88
2023/11/28 10:04:34;;;;;;;1.10;1.00;;;4.70;99.90;;;;;;5049296;28;20197;-88
2023/11/28 10:07:03;;;;;;;1.03;1.03;;;4.60;99.90;;;;;;5046365;28;20704;-88
2023/11/28 10:09:33;;;;;;;2.43;1.00;;;4.40;99.90;;;;;;5049203;28;20201;-87
2023/11/28 10:12:02;;;;;;;1.03;1.00;;;4.20;99.90;;;;;;5030494;28;20194;-89
2023/11/28 10:14:29;;;;;;;1.23;0.90;;;4.00;99.90;;;;;;5034218;28;20202;-86
2023/11/28 10:16:57;;;;;;;1.37;0.90;;;3.90;99.90;;;;;;5047580;28;20202;-87
2023/11/28 10:19:25;;;;;;;1.07;0.97;;;3.80;99.90;;;;;;5035632;28;20210;-85
2023/11/28 10:21:51;;;;;;;1.10;1.00;;;3.70;99.90;;;;;;5048509;28;20226;-85
2023/11/28 10:24:20;;;;;;;0.70;0.70;;;3.70;99.90;;;;;;5047588;28;20202;-85
2023/11/28 10:26:48;;;;;;;1.00;1.00;;;3.60;99.90;;;;;;5049110;28;20634;-86
2023/11/28 10:29:19;;;;;;;0.73;0.73;;;3.60;99.90;;;;;;5048388;28;20198;-85
2023/11/28 10:31:46;;;;;;;0.90;0.90;;;3.50;99.90;;;;;;5047283;28;20205;-87
2023/11/28 10:34:15;;;;;;;1.50;0.80;;;3.40;99.90;;;;;;5049383;28;20732;-86
2023/11/28 10:36:44;;;;;;;0.97;0.97;;;3.30;99.90;;;;;;5025150;28;20210;-86
2023/11/28 10:39:12;;;;;;;2.67;0.90;;;3.30;99.90;;;;;;5036703;28;20198;-86
2023/11/28 10:41:41;;;;;;;0.90;0.90;;;3.30;99.90;;;;;;5031512;28;20252;-87
2023/11/28 10:44:09;;;;;;;0.90;0.90;;;3.20;99.90;;;;;;5047291;28;20197;-87
2023/11/28 10:46:38;;;;;;;2.23;0.87;;;3.20;99.90;;;;;;5043070;28;20576;-86
2023/11/28 10:49:06;;;;;;;0.70;0.63;;;3.20;99.90;;;;;;5046336;28;20202;-88
2023/11/28 10:51:34;;;;;;;0.70;0.70;;;3.20;99.90;;;;;;5033755;28;20264;-89
2023/11/28 10:54:07;;;;;;;0.80;0.80;;;3.10;99.90;;;;;;5041709;28;20194;-88
2023/11/28 10:56:44;;;;;;;0.80;0.80;;;3.00;99.90;;;;;;5043549;28;20226;-89
2023/11/28 10:59:19;;;;;;;1.00;1.00;;;3.00;99.90;;;;;;5028371;28;20251;-87
2023/11/28 11:01:46;;;;;;;1.00;1.00;;;3.10;99.90;;;;;;5026873;28;20296;-88
2023/11/28 11:04:14;;;;;;;0.90;0.90;;;3.10;99.90;;;;;;5047298;28;20229;-86
2023/11/28 11:06:41;;;;;;;1.03;1.00;;;3.10;99.90;;;;;;5048088;28;20190;-86
2023/11/28 11:09:11;;;;;;;73.97;46.33;;;3.00;99.90;;;;;;5026767;28;20202;-85
2023/11/28 11:11:39;;;;;;;15.87;11.53;;;3.10;99.90;;;;;;5048573;28;20206;-86
2023/11/28 11:14:16;;;;;;;7.07;4.77;;;3.50;99.90;;;;;;5029444;28;20202;-87
2023/11/28 11:16:51;;;;;;;24.23;16.23;;;4.00;99.90;;;;;;5045386;28;20202;-87
2023/11/28 11:19:19;;;;;;;3.63;2.97;;;4.10;99.90;;;;;;5044085;28;20207;-85
2023/11/28 11:21:51;;;;;;;1.50;1.40;;;4.70;99.90;;;;;;5047467;28;20755;-87
2023/11/28 11:24:21;;;;;;;7.37;5.10;;;4.50;99.90;;;;;;5012053;28;20228;-87
2023/11/28 11:26:49;;;;;;;16.27;11.60;;;4.10;99.90;;;;;;5046117;28;20623;-89
2023/11/28 11:29:39;;;;;;;5.70;4.67;;;3.90;99.90;;;;;;5041600;28;20206;-86
2023/11/28 11:32:10;;;;;;;2.60;2.17;;;3.90;99.90;;;;;;5049612;28;20371;-88
2023/11/28 11:34:40;;;;;;;1.47;1.37;;;4.10;99.90;;;;;;5044023;28;20206;-93
2023/11/28 11:37:09;;;;;;;1.23;1.13;;;3.80;99.00;;;;;;5033739;28;20200;-88
2023/11/28 11:39:37;;;;;;;5.50;4.33;;;3.90;98.90;;;;;;5050630;28;20225;-87
2023/11/28 11:42:04;;;;;;;1.17;0.97;;;3.50;99.90;;;;;;5034456;28;20210;-85
2023/11/28 11:44:33;;;;;;;23.07;14.30;;;3.50;99.90;;;;;;5047936;28;20197;-85
2023/11/28 11:47:13;;;;;;;2.17;1.90;;;3.70;99.90;;;;;;5051846;28;20206;-89
2023/11/28 11:49:42;;;;;;;2.53;2.23;;;3.70;99.90;;;;;;5031281;28;20193;-87
2023/11/28 11:52:09;;;;;;;11.40;7.67;;;3.50;99.90;;;;;;5051053;28;20226;-87
2023/11/28 11:54:36;;;;;;;12.77;8.77;;;3.30;99.90;;;;;;5051952;28;20197;-88
2023/11/28 11:57:03;;;;;;;4.10;3.33;;;3.40;99.90;;;;;;5052466;28;20194;-88
2023/11/28 11:59:30;;;;;;;5.23;3.97;;;3.80;99.90;;;;;;5044134;28;20271;-90
2023/11/28 12:02:03;;;;;;;1.70;1.13;;;3.60;99.90;;;;;;5059719;28;20647;-91
2023/11/28 12:04:30;;;;;;;2.27;1.43;;;4.10;99.90;;;;;;5057447;28;20214;-87
2023/11/28 12:07:08;;;;;;;21.43;16.47;;;4.00;99.90;;;;;;5054959;28;20193;-86
2023/11/28 12:09:35;;;;;;;25.10;17.53;;;4.10;99.90;;;;;;5053792;28;20720;-91
2023/11/28 12:12:04;;;;;;;2.03;1.73;;;3.70;99.90;;;;;;5036334;28;20213;-93
2023/11/28 12:14:31;;;;;;;7.90;6.03;;;3.50;99.90;;;;;;5056795;28;20198;-90
2023/11/28 12:17:01;;;;;;;7.50;3.97;;;3.60;99.90;;;;;;5033268;28;20190;-90
2023/11/28 12:19:29;;;;;;;1.30;1.10;;;3.40;99.90;;;;;;5091315;22;20236;-92
2023/11/28 12:21:57;;;;;;;13.67;9.60;;;3.20;99.90;;;;;;5122829;22;20213;-93
2023/11/28 12:24:24;;;;;;;13.37;9.13;;;3.50;99.90;;;;;;5062683;28;20702;-92
2023/11/28 12:26:51;;;;;;;1.30;1.20;;;3.10;99.90;;;;;;5051672;28;20204;-90
2023/11/28 12:29:19;;;;;;;8.37;5.70;;;3.10;99.90;;;;;;5057511;28;20194;-87
2023/11/28 12:31:46;;;;;;;3.97;3.23;;;3.10;99.90;;;;;;5046944;28;20202;-91
2023/11/28 12:34:15;;;;;;;3.57;3.17;;;3.80;99.90;;;;;;5050621;28;20209;-85
2023/11/28 12:36:47;;;;;;;6.30;4.50;;;4.20;99.90;;;;;;5027965;28;20251;-86
2023/11/28 12:39:15;;;;;;;1.83;1.70;;;4.40;99.90;;;;;;5035988;28;20202;-87
2023/11/28 12:41:43;;;;;;;4.53;3.03;;;4.10;99.30;;;;;;5050773;28;20559;-84
2023/11/28 12:44:10;;;;;;;2.03;1.50;;;4.40;99.90;;;;;;5049868;28;20224;-87
2023/11/28 12:46:38;;;;;;;3.23;2.80;;;4.60;99.90;;;;;;5030267;28;20727;-85
2023/11/28 12:49:06;;;;;;;2.07;1.63;;;4.10;98.30;;;;;;5050690;28;20205;-85
2023/11/28 12:51:34;;;;;;;2.00;1.80;;;3.60;99.00;;;;;;5047141;28;20311;-86
2023/11/28 12:54:02;;;;;;;3.70;2.20;;;3.50;99.90;;;;;;5043770;28;20233;-84
2023/11/28 12:56:33;;;;;;;2.97;1.93;;;3.50;99.90;;;;;;5046881;28;20207;-84
2023/11/28 12:59:01;;;;;;;1.00;1.00;;;3.30;99.90;;;;;;5042811;28;20201;-85
2023/11/28 13:01:29;;;;;;;2.00;1.80;;;3.10;99.80;;;;;;5044863;28;20203;-84